sensor_id;sensor_type;location;lat;lon;timestamp;temperature;humidity
76333;DHT22;71254;53.010;6.508;2024-03-06T00:02:08;5.40;99.90
76333;DHT22;71254;53.010;6.508;2024-03-06T00:04:37;5.40;99.90
76333;DHT22;71254;53.010;6.508;2024-03-06T00:07:03;5.40;99.90
76333;DHT22;71254;53.010;6.508;2024-03-06T00:09:28;5.40;99.90
76333;DHT22;71254;53.010;6.508;2024-03-06T00:11:55;5.40;99.90
76333;DHT22;71254;53.010;6.508;2024-03-06T00:14:21;5.40;99.90
76333;DHT22;71254;53.010;6.508;2024-03-06T00:16:50;5.40;99.90
76333;DHT22;71254;53.010;6.508;2024-03-06T00:19:17;5.40;99.90
76333;DHT22;71254;53.010;6.508;2024-03-06T00:21:43;5.30;99.90
76333;DHT22;71254;53.010;6.508;2024-03-06T00:24:11;5.30;99.90
76333;DHT22;71254;53.010;6.508;2024-03-06T00:26:36;5.30;99.90
76333;DHT22;71254;53.010;6.508;2024-03-06T00:29:02;5.30;99.90
76333;DHT22;71254;53.010;6.508;2024-03-06T00:31:27;5.30;99.90
76333;DHT22;71254;53.010;6.508;2024-03-06T00:33:53;5.30;99.90
76333;DHT22;71254;53.010;6.508;2024-03-06T00:36:18;5.30;99.90
76333;DHT22;71254;53.010;6.508;2024-03-06T00:38:44;5.30;99.90
76333;DHT22;71254;53.010;6.508;2024-03-06T00:41:10;5.30;99.90
76333;DHT22;71254;53.010;6.508;2024-03-06T00:43:41;5.30;99.90
76333;DHT22;71254;53.010;6.508;2024-03-06T00:46:07;5.30;99.90
76333;DHT22;71254;53.010;6.508;2024-03-06T00:48:33;5.20;99.90
76333;DHT22;71254;53.010;6.508;2024-03-06T00:50:58;5.20;99.90
76333;DHT22;71254;53.010;6.508;2024-03-06T00:53:24;5.20;99.90
76333;DHT22;71254;53.010;6.508;2024-03-06T00:55:50;5.20;99.90
76333;DHT22;71254;53.010;6.508;2024-03-06T00:58:18;5.20;99.90
76333;DHT22;71254;53.010;6.508;2024-03-06T01:00:43;5.20;99.90
76333;DHT22;71254;53.010;6.508;2024-03-06T01:03:09;5.20;99.90
76333;DHT22;71254;53.010;6.508;2024-03-06T01:05:34;5.20;99.90
76333;DHT22;71254;53.010;6.508;2024-03-06T01:08:03;5.20;99.90
76333;DHT22;71254;53.010;6.508;2024-03-06T01:10:29;5.20;99.90
76333;DHT22;71254;53.010;6.508;2024-03-06T01:12:54;5.20;99.90
76333;DHT22;71254;53.010;6.508;2024-03-06T01:15:20;5.20;99.90
76333;DHT22;71254;53.010;6.508;2024-03-06T01:17:48;5.20;99.90
76333;DHT22;71254;53.010;6.508;2024-03-06T01:20:15;5.20;99.90
76333;DHT22;71254;53.010;6.508;2024-03-06T01:22:49;5.10;99.90
76333;DHT22;71254;53.010;6.508;2024-03-06T01:25:15;5.20;99.90
76333;DHT22;71254;53.010;6.508;2024-03-06T01:27:43;5.10;99.90
76333;DHT22;71254;53.010;6.508;2024-03-06T01:30:09;6.60;99.90
76333;DHT22;71254;53.010;6.508;2024-03-06T01:32:34;5.10;99.90
76333;DHT22;71254;53.010;6.508;2024-03-06T01:35:00;5.10;99.90
76333;DHT22;71254;53.010;6.508;2024-03-06T01:37:26;5.10;99.90
76333;DHT22;71254;53.010;6.508;2024-03-06T01:39:52;5.10;99.90
76333;DHT22;71254;53.010;6.508;2024-03-06T01:42:17;6.10;99.90
76333;DHT22;71254;53.010;6.508;2024-03-06T01:44:43;5.10;99.90
76333;DHT22;71254;53.010;6.508;2024-03-06T01:47:09;5.10;99.90
76333;DHT22;71254;53.010;6.508;2024-03-06T01:49:35;5.10;99.90
76333;DHT22;71254;53.010;6.508;2024-03-06T01:52:01;5.10;99.90
76333;DHT22;71254;53.010;6.508;2024-03-06T01:54:27;5.10;99.90
76333;DHT22;71254;53.010;6.508;2024-03-06T01:56:54;5.10;99.90
76333;DHT22;71254;53.010;6.508;2024-03-06T01:59:22;5.10;99.90
76333;DHT22;71254;53.010;6.508;2024-03-06T02:01:52;5.10;99.90
76333;DHT22;71254;53.010;6.508;2024-03-06T02:04:18;5.10;99.90
76333;DHT22;71254;53.010;6.508;2024-03-06T02:06:44;5.10;99.90
76333;DHT22;71254;53.010;6.508;2024-03-06T02:09:10;5.10;99.90
76333;DHT22;71254;53.010;6.508;2024-03-06T02:11:39;5.10;99.90
76333;DHT22;71254;53.010;6.508;2024-03-06T02:14:04;5.10;99.90
76333;DHT22;71254;53.010;6.508;2024-03-06T02:16:32;5.10;99.90
76333;DHT22;71254;53.010;6.508;2024-03-06T02:18:57;5.10;99.90
76333;DHT22;71254;53.010;6.508;2024-03-06T02:21:25;5.10;99.90
76333;DHT22;71254;53.010;6.508;2024-03-06T02:23:53;5.10;99.90
76333;DHT22;71254;53.010;6.508;2024-03-06T02:26:20;6.10;99.90
76333;DHT22;71254;53.010;6.508;2024-03-06T02:28:49;5.10;99.90
76333;DHT22;71254;53.010;6.508;2024-03-06T02:31:16;4.10;99.90
76333;DHT22;71254;53.010;6.508;2024-03-06T02:33:43;5.10;99.90
76333;DHT22;71254;53.010;6.508;2024-03-06T02:36:10;5.10;99.90
76333;DHT22;71254;53.010;6.508;2024-03-06T02:38:39;5.10;99.90
76333;DHT22;71254;53.010;6.508;2024-03-06T02:41:05;5.80;99.90
76333;DHT22;71254;53.010;6.508;2024-03-06T02:43:32;5.10;99.90
76333;DHT22;71254;53.010;6.508;2024-03-06T02:45:58;5.10;99.90
76333;DHT22;71254;53.010;6.508;2024-03-06T02:48:26;5.10;99.90
76333;DHT22;71254;53.010;6.508;2024-03-06T02:50:52;5.10;99.90
76333;DHT22;71254;53.010;6.508;2024-03-06T02:53:18;5.10;99.90
76333;DHT22;71254;53.010;6.508;2024-03-06T02:55:43;5.00;99.90
76333;DHT22;71254;53.010;6.508;2024-03-06T02:58:09;5.10;99.90
76333;DHT22;71254;53.010;6.508;2024-03-06T03:00:35;5.10;99.90
76333;DHT22;71254;53.010;6.508;2024-03-06T03:03:01;5.00;99.90
76333;DHT22;71254;53.010;6.508;2024-03-06T03:05:26;5.00;99.90
76333;DHT22;71254;53.010;6.508;2024-03-06T03:07:52;5.00;99.90
76333;DHT22;71254;53.010;6.508;2024-03-06T03:10:18;5.10;99.90
76333;DHT22;71254;53.010;6.508;2024-03-06T03:12:44;5.00;99.90
76333;DHT22;71254;53.010;6.508;2024-03-06T03:15:10;5.00;99.90
76333;DHT22;71254;53.010;6.508;2024-03-06T03:17:35;5.00;99.90
76333;DHT22;71254;53.010;6.508;2024-03-06T03:20:02;5.00;99.90
76333;DHT22;71254;53.010;6.508;2024-03-06T03:22:41;5.00;99.90
76333;DHT22;71254;53.010;6.508;2024-03-06T03:25:08;5.10;99.90
76333;DHT22;71254;53.010;6.508;2024-03-06T03:27:33;5.00;99.90
76333;DHT22;71254;53.010;6.508;2024-03-06T03:29:59;5.00;99.90
76333;DHT22;71254;53.010;6.508;2024-03-06T03:32:25;5.00;99.90
76333;DHT22;71254;53.010;6.508;2024-03-06T03:34:53;5.00;99.90
76333;DHT22;71254;53.010;6.508;2024-03-06T03:37:18;5.00;99.90
76333;DHT22;71254;53.010;6.508;2024-03-06T03:39:44;5.00;99.90
76333;DHT22;71254;53.010;6.508;2024-03-06T03:42:10;5.00;99.90
76333;DHT22;71254;53.010;6.508;2024-03-06T03:53:12;5.00;99.90
76333;DHT22;71254;53.010;6.508;2024-03-06T03:59:19;5.00;99.90
76333;DHT22;71254;53.010;6.508;2024-03-06T04:05:28;5.00;99.90
76333;DHT22;71254;53.010;6.508;2024-03-06T04:11:34;5.00;99.90
76333;DHT22;71254;53.010;6.508;2024-03-06T04:21:23;5.00;99.90
76333;DHT22;71254;53.010;6.508;2024-03-06T04:27:30;4.90;99.90
76333;DHT22;71254;53.010;6.508;2024-03-06T04:40:58;4.90;99.90
76333;DHT22;71254;53.010;6.508;2024-03-06T04:51:57;4.90;99.90
76333;DHT22;71254;53.010;6.508;2024-03-06T04:54:23;4.90;99.90
76333;DHT22;71254;53.010;6.508;2024-03-06T04:56:48;4.90;99.90
76333;DHT22;71254;53.010;6.508;2024-03-06T04:59:14;4.90;99.90
76333;DHT22;71254;53.010;6.508;2024-03-06T05:01:40;4.90;99.90
76333;DHT22;71254;53.010;6.508;2024-03-06T05:04:06;4.90;99.90
76333;DHT22;71254;53.010;6.508;2024-03-06T05:06:32;4.80;99.90
76333;DHT22;71254;53.010;6.508;2024-03-06T05:08:58;4.90;99.90
76333;DHT22;71254;53.010;6.508;2024-03-06T05:11:23;4.80;99.90
76333;DHT22;71254;53.010;6.508;2024-03-06T05:13:49;4.80;99.90
76333;DHT22;71254;53.010;6.508;2024-03-06T05:16:15;4.90;99.90
76333;DHT22;71254;53.010;6.508;2024-03-06T05:18:40;4.90;99.90
76333;DHT22;71254;53.010;6.508;2024-03-06T05:21:06;4.80;99.90
76333;DHT22;71254;53.010;6.508;2024-03-06T05:23:31;4.90;99.90
76333;DHT22;71254;53.010;6.508;2024-03-06T05:25:57;4.90;99.90
76333;DHT22;71254;53.010;6.508;2024-03-06T05:28:22;4.80;99.90
76333;DHT22;71254;53.010;6.508;2024-03-06T05:30:48;4.90;99.90
76333;DHT22;71254;53.010;6.508;2024-03-06T05:33:14;4.90;99.90
76333;DHT22;71254;53.010;6.508;2024-03-06T05:35:40;4.90;99.90
76333;DHT22;71254;53.010;6.508;2024-03-06T05:38:06;4.80;99.90
76333;DHT22;71254;53.010;6.508;2024-03-06T05:40:32;4.90;99.90
76333;DHT22;71254;53.010;6.508;2024-03-06T05:43:02;4.80;99.90
76333;DHT22;71254;53.010;6.508;2024-03-06T05:45:29;4.90;99.90
76333;DHT22;71254;53.010;6.508;2024-03-06T05:47:54;4.90;99.90
76333;DHT22;71254;53.010;6.508;2024-03-06T05:50:20;4.90;99.90
76333;DHT22;71254;53.010;6.508;2024-03-06T05:52:45;4.90;99.90
76333;DHT22;71254;53.010;6.508;2024-03-06T05:55:11;4.90;99.90
76333;DHT22;71254;53.010;6.508;2024-03-06T05:57:37;4.90;99.90
76333;DHT22;71254;53.010;6.508;2024-03-06T06:00:03;4.90;99.90
76333;DHT22;71254;53.010;6.508;2024-03-06T06:02:33;4.90;99.90
76333;DHT22;71254;53.010;6.508;2024-03-06T06:04:59;4.90;99.90
76333;DHT22;71254;53.010;6.508;2024-03-06T06:07:27;4.90;99.90
76333;DHT22;71254;53.010;6.508;2024-03-06T06:09:56;5.00;99.90
76333;DHT22;71254;53.010;6.508;2024-03-06T06:12:22;4.80;99.90
76333;DHT22;71254;53.010;6.508;2024-03-06T06:14:51;4.80;99.90
76333;DHT22;71254;53.010;6.508;2024-03-06T06:17:16;4.90;99.90
76333;DHT22;71254;53.010;6.508;2024-03-06T06:19:43;4.90;99.90
76333;DHT22;71254;53.010;6.508;2024-03-06T06:22:09;4.90;99.90
76333;DHT22;71254;53.010;6.508;2024-03-06T06:24:37;4.90;99.90
76333;DHT22;71254;53.010;6.508;2024-03-06T06:27:02;4.80;99.90
76333;DHT22;71254;53.010;6.508;2024-03-06T06:29:28;4.90;99.90
76333;DHT22;71254;53.010;6.508;2024-03-06T06:31:54;4.80;99.90
76333;DHT22;71254;53.010;6.508;2024-03-06T06:34:20;4.80;99.90
76333;DHT22;71254;53.010;6.508;2024-03-06T06:36:46;4.90;99.90
76333;DHT22;71254;53.010;6.508;2024-03-06T06:39:19;4.90;99.90
76333;DHT22;71254;53.010;6.508;2024-03-06T06:41:45;4.90;99.90
76333;DHT22;71254;53.010;6.508;2024-03-06T06:44:13;4.80;99.90
76333;DHT22;71254;53.010;6.508;2024-03-06T06:46:39;4.90;99.90
76333;DHT22;71254;53.010;6.508;2024-03-06T06:49:05;4.80;99.90
76333;DHT22;71254;53.010;6.508;2024-03-06T06:51:30;4.90;99.90
76333;DHT22;71254;53.010;6.508;2024-03-06T06:53:56;4.90;99.90
76333;DHT22;71254;53.010;6.508;2024-03-06T06:56:22;4.90;99.90
76333;DHT22;71254;53.010;6.508;2024-03-06T06:58:49;4.90;99.90
76333;DHT22;71254;53.010;6.508;2024-03-06T07:01:15;4.90;99.90
76333;DHT22;71254;53.010;6.508;2024-03-06T07:03:44;4.90;99.90
76333;DHT22;71254;53.010;6.508;2024-03-06T07:06:09;4.90;99.90
76333;DHT22;71254;53.010;6.508;2024-03-06T07:08:36;4.90;99.90
76333;DHT22;71254;53.010;6.508;2024-03-06T07:11:05;4.90;99.90
76333;DHT22;71254;53.010;6.508;2024-03-06T07:13:31;4.90;99.90
76333;DHT22;71254;53.010;6.508;2024-03-06T07:15:56;4.90;99.90
76333;DHT22;71254;53.010;6.508;2024-03-06T07:18:22;4.90;99.90
76333;DHT22;71254;53.010;6.508;2024-03-06T07:20:48;4.90;99.90
76333;DHT22;71254;53.010;6.508;2024-03-06T07:23:13;5.00;99.90
76333;DHT22;71254;53.010;6.508;2024-03-06T07:25:39;5.00;99.90
76333;DHT22;71254;53.010;6.508;2024-03-06T07:28:08;5.00;99.90
76333;DHT22;71254;53.010;6.508;2024-03-06T07:30:34;5.00;99.90
76333;DHT22;71254;53.010;6.508;2024-03-06T07:33:00;5.70;99.90
76333;DHT22;71254;53.010;6.508;2024-03-06T07:35:26;5.00;99.90
76333;DHT22;71254;53.010;6.508;2024-03-06T07:37:51;5.00;99.90
76333;DHT22;71254;53.010;6.508;2024-03-06T07:40:17;5.00;99.90
76333;DHT22;71254;53.010;6.508;2024-03-06T07:42:43;5.10;99.90
76333;DHT22;71254;53.010;6.508;2024-03-06T07:45:09;5.10;99.90
76333;DHT22;71254;53.010;6.508;2024-03-06T07:47:35;5.10;99.90
76333;DHT22;71254;53.010;6.508;2024-03-06T07:50:04;5.10;99.90
76333;DHT22;71254;53.010;6.508;2024-03-06T07:52:31;5.10;99.90
76333;DHT22;71254;53.010;6.508;2024-03-06T07:54:57;5.10;99.90
76333;DHT22;71254;53.010;6.508;2024-03-06T07:57:23;5.10;99.90
76333;DHT22;71254;53.010;6.508;2024-03-06T07:59:49;5.10;99.90
76333;DHT22;71254;53.010;6.508;2024-03-06T08:02:16;5.10;99.90
76333;DHT22;71254;53.010;6.508;2024-03-06T08:04:42;5.10;99.90
76333;DHT22;71254;53.010;6.508;2024-03-06T08:07:08;5.10;99.90
76333;DHT22;71254;53.010;6.508;2024-03-06T08:09:33;5.10;99.90
76333;DHT22;71254;53.010;6.508;2024-03-06T08:11:59;5.20;99.90
76333;DHT22;71254;53.010;6.508;2024-03-06T08:14:24;5.20;99.90
76333;DHT22;71254;53.010;6.508;2024-03-06T08:16:51;5.20;99.90
76333;DHT22;71254;53.010;6.508;2024-03-06T08:19:16;5.20;99.90
76333;DHT22;71254;53.010;6.508;2024-03-06T08:21:42;5.20;99.90
76333;DHT22;71254;53.010;6.508;2024-03-06T08:24:07;5.20;99.90
76333;DHT22;71254;53.010;6.508;2024-03-06T08:26:36;5.40;99.90
76333;DHT22;71254;53.010;6.508;2024-03-06T08:29:02;5.30;99.90
76333;DHT22;71254;53.010;6.508;2024-03-06T08:31:27;5.30;99.90
76333;DHT22;71254;53.010;6.508;2024-03-06T08:33:53;5.30;99.90
76333;DHT22;71254;53.010;6.508;2024-03-06T08:36:19;5.30;99.90
76333;DHT22;71254;53.010;6.508;2024-03-06T08:38:44;5.40;99.90
76333;DHT22;71254;53.010;6.508;2024-03-06T08:41:10;4.50;99.90
76333;DHT22;71254;53.010;6.508;2024-03-06T08:43:36;5.40;99.90
76333;DHT22;71254;53.010;6.508;2024-03-06T08:46:04;5.40;99.90
76333;DHT22;71254;53.010;6.508;2024-03-06T08:48:30;5.50;99.90
76333;DHT22;71254;53.010;6.508;2024-03-06T08:50:55;5.40;99.90
76333;DHT22;71254;53.010;6.508;2024-03-06T08:53:21;5.50;99.90
76333;DHT22;71254;53.010;6.508;2024-03-06T08:55:47;5.40;99.90
76333;DHT22;71254;53.010;6.508;2024-03-06T08:58:12;5.50;99.90
76333;DHT22;71254;53.010;6.508;2024-03-06T09:00:39;5.50;99.90
76333;DHT22;71254;53.010;6.508;2024-03-06T09:03:05;5.50;99.90
76333;DHT22;71254;53.010;6.508;2024-03-06T09:05:30;5.60;99.90
76333;DHT22;71254;53.010;6.508;2024-03-06T09:07:56;5.60;99.90
76333;DHT22;71254;53.010;6.508;2024-03-06T09:10:23;5.50;99.90
76333;DHT22;71254;53.010;6.508;2024-03-06T09:12:48;5.60;99.90
76333;DHT22;71254;53.010;6.508;2024-03-06T09:15:15;5.60;99.90
76333;DHT22;71254;53.010;6.508;2024-03-06T09:17:40;5.60;99.90
76333;DHT22;71254;53.010;6.508;2024-03-06T09:20:07;5.50;99.90
76333;DHT22;71254;53.010;6.508;2024-03-06T09:22:39;5.60;99.90
76333;DHT22;71254;53.010;6.508;2024-03-06T09:25:06;5.60;99.90
76333;DHT22;71254;53.010;6.508;2024-03-06T09:27:32;5.60;99.90
76333;DHT22;71254;53.010;6.508;2024-03-06T09:29:58;5.60;99.90
76333;DHT22;71254;53.010;6.508;2024-03-06T09:32:24;5.70;99.90
76333;DHT22;71254;53.010;6.508;2024-03-06T09:34:51;5.70;99.90
76333;DHT22;71254;53.010;6.508;2024-03-06T09:37:18;6.60;99.90
76333;DHT22;71254;53.010;6.508;2024-03-06T09:39:46;5.70;99.90
76333;DHT22;71254;53.010;6.508;2024-03-06T09:42:13;7.10;99.90
76333;DHT22;71254;53.010;6.508;2024-03-06T09:44:40;5.70;99.90
76333;DHT22;71254;53.010;6.508;2024-03-06T09:47:06;5.70;99.90
76333;DHT22;71254;53.010;6.508;2024-03-06T09:49:33;5.80;99.90
76333;DHT22;71254;53.010;6.508;2024-03-06T09:52:00;5.80;99.90
76333;DHT22;71254;53.010;6.508;2024-03-06T09:54:30;5.80;99.90
76333;DHT22;71254;53.010;6.508;2024-03-06T09:56:56;5.80;99.90
76333;DHT22;71254;53.010;6.508;2024-03-06T09:59:23;5.90;99.90
76333;DHT22;71254;53.010;6.508;2024-03-06T10:01:57;5.90;99.90
76333;DHT22;71254;53.010;6.508;2024-03-06T10:04:24;5.90;99.90
76333;DHT22;71254;53.010;6.508;2024-03-06T10:06:51;6.00;99.90
76333;DHT22;71254;53.010;6.508;2024-03-06T10:09:19;6.00;99.90
76333;DHT22;71254;53.010;6.508;2024-03-06T10:11:45;6.00;99.90
76333;DHT22;71254;53.010;6.508;2024-03-06T10:14:11;6.00;99.90
76333;DHT22;71254;53.010;6.508;2024-03-06T10:16:37;6.10;99.90
76333;DHT22;71254;53.010;6.508;2024-03-06T10:19:16;6.10;99.90
76333;DHT22;71254;53.010;6.508;2024-03-06T10:21:46;6.10;99.90
76333;DHT22;71254;53.010;6.508;2024-03-06T10:24:11;6.20;99.90
76333;DHT22;71254;53.010;6.508;2024-03-06T10:26:38;6.20;99.90
76333;DHT22;71254;53.010;6.508;2024-03-06T10:29:03;6.30;99.90
76333;DHT22;71254;53.010;6.508;2024-03-06T10:31:29;6.30;99.90
76333;DHT22;71254;53.010;6.508;2024-03-06T10:33:55;6.30;99.90
76333;DHT22;71254;53.010;6.508;2024-03-06T10:36:20;6.40;99.90
76333;DHT22;71254;53.010;6.508;2024-03-06T10:38:49;6.40;99.90
76333;DHT22;71254;53.010;6.508;2024-03-06T10:41:16;6.40;99.90
76333;DHT22;71254;53.010;6.508;2024-03-06T10:43:47;6.40;99.90
76333;DHT22;71254;53.010;6.508;2024-03-06T10:46:18;7.10;99.90
76333;DHT22;71254;53.010;6.508;2024-03-06T10:48:46;6.50;99.90
76333;DHT22;71254;53.010;6.508;2024-03-06T10:51:13;6.50;99.90
76333;DHT22;71254;53.010;6.508;2024-03-06T10:53:40;6.60;99.90
76333;DHT22;71254;53.010;6.508;2024-03-06T10:56:09;6.60;99.90
76333;DHT22;71254;53.010;6.508;2024-03-06T10:58:35;6.60;99.90
76333;DHT22;71254;53.010;6.508;2024-03-06T11:01:03;6.70;99.90
76333;DHT22;71254;53.010;6.508;2024-03-06T11:03:29;6.70;99.90
76333;DHT22;71254;53.010;6.508;2024-03-06T11:05:57;6.70;99.90
76333;DHT22;71254;53.010;6.508;2024-03-06T11:08:23;6.80;99.90
76333;DHT22;71254;53.010;6.508;2024-03-06T11:10:51;6.80;99.90
76333;DHT22;71254;53.010;6.508;2024-03-06T11:15:47;6.80;99.90
76333;DHT22;71254;53.010;6.508;2024-03-06T11:23:33;6.90;99.90
76333;DHT22;71254;53.010;6.508;2024-03-06T11:26:06;6.90;99.90
76333;DHT22;71254;53.010;6.508;2024-03-06T11:28:33;5.70;99.90
76333;DHT22;71254;53.010;6.508;2024-03-06T11:31:07;7.00;99.90
76333;DHT22;71254;53.010;6.508;2024-03-06T11:33:44;7.00;99.90
76333;DHT22;71254;53.010;6.508;2024-03-06T11:41:28;7.00;99.90
76333;DHT22;71254;53.010;6.508;2024-03-06T11:43:55;7.00;99.90
76333;DHT22;71254;53.010;6.508;2024-03-06T11:46:22;7.00;99.90
76333;DHT22;71254;53.010;6.508;2024-03-06T11:48:55;7.00;99.90
76333;DHT22;71254;53.010;6.508;2024-03-06T11:51:24;7.00;99.90
76333;DHT22;71254;53.010;6.508;2024-03-06T11:53:50;7.00;99.90
76333;DHT22;71254;53.010;6.508;2024-03-06T11:56:20;7.10;99.90
76333;DHT22;71254;53.010;6.508;2024-03-06T11:58:47;7.10;99.90
76333;DHT22;71254;53.010;6.508;2024-03-06T12:01:14;7.10;99.90
76333;DHT22;71254;53.010;6.508;2024-03-06T12:03:41;8.70;99.90
76333;DHT22;71254;53.010;6.508;2024-03-06T12:06:06;7.30;99.90
76333;DHT22;71254;53.010;6.508;2024-03-06T12:08:33;7.30;99.90
76333;DHT22;71254;53.010;6.508;2024-03-06T12:11:03;7.30;99.90
76333;DHT22;71254;53.010;6.508;2024-03-06T12:13:29;7.40;99.90
76333;DHT22;71254;53.010;6.508;2024-03-06T12:15:58;7.50;99.90
76333;DHT22;71254;53.010;6.508;2024-03-06T12:18:24;7.50;99.90
76333;DHT22;71254;53.010;6.508;2024-03-06T12:20:50;7.60;99.90
76333;DHT22;71254;53.010;6.508;2024-03-06T12:23:21;7.70;99.90
76333;DHT22;71254;53.010;6.508;2024-03-06T12:26:02;7.70;99.90
76333;DHT22;71254;53.010;6.508;2024-03-06T12:28:31;7.70;99.90
76333;DHT22;71254;53.010;6.508;2024-03-06T12:30:56;8.10;99.90
76333;DHT22;71254;53.010;6.508;2024-03-06T12:33:26;7.80;99.90
76333;DHT22;71254;53.010;6.508;2024-03-06T12:36:06;7.90;99.90
76333;DHT22;71254;53.010;6.508;2024-03-06T12:38:35;7.90;99.90
76333;DHT22;71254;53.010;6.508;2024-03-06T12:41:05;8.10;99.90
76333;DHT22;71254;53.010;6.508;2024-03-06T12:43:31;8.00;99.90
76333;DHT22;71254;53.010;6.508;2024-03-06T12:45:57;8.90;99.90
76333;DHT22;71254;53.010;6.508;2024-03-06T12:48:23;8.10;99.90
76333;DHT22;71254;53.010;6.508;2024-03-06T12:50:51;8.10;99.90
76333;DHT22;71254;53.010;6.508;2024-03-06T12:53:18;8.10;99.90
76333;DHT22;71254;53.010;6.508;2024-03-06T12:55:44;8.20;99.90
76333;DHT22;71254;53.010;6.508;2024-03-06T12:58:12;8.20;99.90
76333;DHT22;71254;53.010;6.508;2024-03-06T13:00:38;8.30;99.90
76333;DHT22;71254;53.010;6.508;2024-03-06T13:03:04;8.30;99.90
76333;DHT22;71254;53.010;6.508;2024-03-06T13:05:30;8.50;99.90
76333;DHT22;71254;53.010;6.508;2024-03-06T13:07:56;8.50;99.90
76333;DHT22;71254;53.010;6.508;2024-03-06T13:10:22;8.70;99.90
76333;DHT22;71254;53.010;6.508;2024-03-06T13:12:50;8.70;99.90
76333;DHT22;71254;53.010;6.508;2024-03-06T13:15:15;8.80;99.90
76333;DHT22;71254;53.010;6.508;2024-03-06T13:17:41;8.80;99.90
76333;DHT22;71254;53.010;6.508;2024-03-06T13:20:14;8.90;99.90
76333;DHT22;71254;53.010;6.508;2024-03-06T13:22:40;9.00;99.90
76333;DHT22;71254;53.010;6.508;2024-03-06T13:25:06;9.10;99.90
76333;DHT22;71254;53.010;6.508;2024-03-06T13:27:35;9.90;99.90
76333;DHT22;71254;53.010;6.508;2024-03-06T13:30:01;9.70;99.90
76333;DHT22;71254;53.010;6.508;2024-03-06T13:32:26;9.30;99.90
76333;DHT22;71254;53.010;6.508;2024-03-06T13:34:52;9.40;99.90
76333;DHT22;71254;53.010;6.508;2024-03-06T13:37:21;9.40;99.90
76333;DHT22;71254;53.010;6.508;2024-03-06T13:39:49;9.50;99.90
76333;DHT22;71254;53.010;6.508;2024-03-06T13:42:15;9.60;99.90
76333;DHT22;71254;53.010;6.508;2024-03-06T13:44:41;9.60;99.90
76333;DHT22;71254;53.010;6.508;2024-03-06T13:47:06;9.60;99.90
76333;DHT22;71254;53.010;6.508;2024-03-06T13:49:41;9.60;99.90
76333;DHT22;71254;53.010;6.508;2024-03-06T13:52:08;9.70;99.90
76333;DHT22;71254;53.010;6.508;2024-03-06T13:54:39;9.70;99.90
76333;DHT22;71254;53.010;6.508;2024-03-06T13:57:07;9.70;99.90
76333;DHT22;71254;53.010;6.508;2024-03-06T13:59:33;10.00;99.90
76333;DHT22;71254;53.010;6.508;2024-03-06T14:01:59;9.90;99.90
76333;DHT22;71254;53.010;6.508;2024-03-06T14:04:28;10.00;99.90
76333;DHT22;71254;53.010;6.508;2024-03-06T14:06:54;10.10;99.90
76333;DHT22;71254;53.010;6.508;2024-03-06T14:09:20;10.10;99.90
76333;DHT22;71254;53.010;6.508;2024-03-06T14:11:49;10.20;99.90
76333;DHT22;71254;53.010;6.508;2024-03-06T14:14:15;10.30;99.90
76333;DHT22;71254;53.010;6.508;2024-03-06T14:16:47;11.60;99.90
76333;DHT22;71254;53.010;6.508;2024-03-06T14:19:14;10.40;99.90
76333;DHT22;71254;53.010;6.508;2024-03-06T14:21:40;10.50;99.90
76333;DHT22;71254;53.010;6.508;2024-03-06T14:24:05;10.50;99.90
76333;DHT22;71254;53.010;6.508;2024-03-06T14:26:41;10.60;99.90
76333;DHT22;71254;53.010;6.508;2024-03-06T14:29:06;10.60;99.90
76333;DHT22;71254;53.010;6.508;2024-03-06T14:31:33;10.70;99.90
76333;DHT22;71254;53.010;6.508;2024-03-06T14:33:59;10.70;99.90
76333;DHT22;71254;53.010;6.508;2024-03-06T14:36:25;10.70;99.90
76333;DHT22;71254;53.010;6.508;2024-03-06T14:38:51;10.70;99.90
76333;DHT22;71254;53.010;6.508;2024-03-06T14:41:23;10.80;99.90
76333;DHT22;71254;53.010;6.508;2024-03-06T14:43:49;10.80;99.90
76333;DHT22;71254;53.010;6.508;2024-03-06T14:46:14;11.00;99.90
76333;DHT22;71254;53.010;6.508;2024-03-06T14:48:40;11.10;99.90
76333;DHT22;71254;53.010;6.508;2024-03-06T14:51:08;11.20;99.90
76333;DHT22;71254;53.010;6.508;2024-03-06T14:53:34;11.20;99.90
76333;DHT22;71254;53.010;6.508;2024-03-06T14:56:03;11.10;99.90
76333;DHT22;71254;53.010;6.508;2024-03-06T14:58:37;11.10;99.90
76333;DHT22;71254;53.010;6.508;2024-03-06T15:01:03;11.20;99.90
76333;DHT22;71254;53.010;6.508;2024-03-06T15:03:29;11.10;99.90
76333;DHT22;71254;53.010;6.508;2024-03-06T15:05:59;11.00;99.90
76333;DHT22;71254;53.010;6.508;2024-03-06T15:08:28;10.90;99.90
76333;DHT22;71254;53.010;6.508;2024-03-06T15:10:54;10.80;99.90
76333;DHT22;71254;53.010;6.508;2024-03-06T15:13:19;10.80;99.90
76333;DHT22;71254;53.010;6.508;2024-03-06T15:15:45;11.00;99.90
76333;DHT22;71254;53.010;6.508;2024-03-06T15:18:10;11.80;99.90
76333;DHT22;71254;53.010;6.508;2024-03-06T15:20:36;12.70;99.90
76333;DHT22;71254;53.010;6.508;2024-03-06T15:23:02;13.50;99.90
76333;DHT22;71254;53.010;6.508;2024-03-06T15:25:28;14.30;99.90
76333;DHT22;71254;53.010;6.508;2024-03-06T15:27:53;15.10;99.90
76333;DHT22;71254;53.010;6.508;2024-03-06T15:30:19;16.10;99.90
76333;DHT22;71254;53.010;6.508;2024-03-06T15:32:46;16.30;97.00
76333;DHT22;71254;53.010;6.508;2024-03-06T15:35:12;16.50;93.90
76333;DHT22;71254;53.010;6.508;2024-03-06T15:37:37;16.90;93.40
76333;DHT22;71254;53.010;6.508;2024-03-06T15:40:07;17.00;89.70
76333;DHT22;71254;53.010;6.508;2024-03-06T15:42:36;16.60;85.30
76333;DHT22;71254;53.010;6.508;2024-03-06T15:45:02;16.00;91.40
76333;DHT22;71254;53.010;6.508;2024-03-06T15:47:28;15.20;92.60
76333;DHT22;71254;53.010;6.508;2024-03-06T15:49:56;14.40;94.70
76333;DHT22;71254;53.010;6.508;2024-03-06T15:52:24;13.70;96.40
76333;DHT22;71254;53.010;6.508;2024-03-06T15:54:50;13.10;98.60
76333;DHT22;71254;53.010;6.508;2024-03-06T15:57:16;12.60;99.90
76333;DHT22;71254;53.010;6.508;2024-03-06T15:59:44;12.20;99.90
76333;DHT22;71254;53.010;6.508;2024-03-06T16:02:14;12.30;99.90
76333;DHT22;71254;53.010;6.508;2024-03-06T16:04:39;11.50;99.90
76333;DHT22;71254;53.010;6.508;2024-03-06T16:07:05;11.20;99.90
76333;DHT22;71254;53.010;6.508;2024-03-06T16:09:34;11.00;99.90
76333;DHT22;71254;53.010;6.508;2024-03-06T16:11:59;10.80;99.90
76333;DHT22;71254;53.010;6.508;2024-03-06T16:14:25;10.60;99.90
76333;DHT22;71254;53.010;6.508;2024-03-06T16:16:54;10.40;99.90
76333;DHT22;71254;53.010;6.508;2024-03-06T16:19:19;10.20;99.90
76333;DHT22;71254;53.010;6.508;2024-03-06T16:21:45;10.00;99.90
76333;DHT22;71254;53.010;6.508;2024-03-06T16:24:10;9.90;99.90
76333;DHT22;71254;53.010;6.508;2024-03-06T16:26:36;9.80;99.90
76333;DHT22;71254;53.010;6.508;2024-03-06T16:29:02;9.60;99.90
76333;DHT22;71254;53.010;6.508;2024-03-06T16:31:28;9.60;99.90
76333;DHT22;71254;53.010;6.508;2024-03-06T16:33:54;9.50;99.90
76333;DHT22;71254;53.010;6.508;2024-03-06T16:36:20;9.50;99.90
76333;DHT22;71254;53.010;6.508;2024-03-06T16:38:49;9.40;99.90
76333;DHT22;71254;53.010;6.508;2024-03-06T16:41:14;9.40;99.90
76333;DHT22;71254;53.010;6.508;2024-03-06T16:43:40;9.30;99.90
76333;DHT22;71254;53.010;6.508;2024-03-06T16:46:06;9.20;99.90